sensor_id;sensor_type;location;lat;lon;timestamp;P1;durP1;ratioP1;P2;durP2;ratioP2
8327;SDS011;4201;48.754;8.864;2022-07-29T00:02:11;8.37;;;6.93;;
8327;SDS011;4201;48.754;8.864;2022-07-29T00:04:37;9.23;;;7.30;;
8327;SDS011;4201;48.754;8.864;2022-07-29T00:07:04;9.57;;;6.73;;
8327;SDS011;4201;48.754;8.864;2022-07-29T00:09:31;8.20;;;7.33;;
8327;SDS011;4201;48.754;8.864;2022-07-29T00:12:00;8.50;;;6.90;;
8327;SDS011;4201;48.754;8.864;2022-07-29T00:14:26;9.20;;;8.03;;
8327;SDS011;4201;48.754;8.864;2022-07-29T00:16:53;8.30;;;7.50;;
8327;SDS011;4201;48.754;8.864;2022-07-29T00:19:19;11.33;;;7.53;;
8327;SDS011;4201;48.754;8.864;2022-07-29T00:21:45;8.03;;;7.20;;
8327;SDS011;4201;48.754;8.864;2022-07-29T00:24:12;13.63;;;8.40;;
8327;SDS011;4201;48.754;8.864;2022-07-29T00:26:39;11.60;;;8.53;;
8327;SDS011;4201;48.754;8.864;2022-07-29T00:29:05;9.40;;;8.20;;
8327;SDS011;4201;48.754;8.864;2022-07-29T00:31:32;9.60;;;8.50;;
8327;SDS011;4201;48.754;8.864;2022-07-29T00:33:58;11.00;;;7.73;;
8327;SDS011;4201;48.754;8.864;2022-07-29T00:36:24;10.33;;;8.00;;
8327;SDS011;4201;48.754;8.864;2022-07-29T00:38:50;9.30;;;8.07;;
8327;SDS011;4201;48.754;8.864;2022-07-29T00:41:16;10.90;;;7.17;;
8327;SDS011;4201;48.754;8.864;2022-07-29T00:43:44;10.33;;;8.33;;
8327;SDS011;4201;48.754;8.864;2022-07-29T00:46:11;9.33;;;7.83;;
8327;SDS011;4201;48.754;8.864;2022-07-29T00:48:37;11.73;;;7.30;;
8327;SDS011;4201;48.754;8.864;2022-07-29T00:51:04;11.73;;;8.60;;
8327;SDS011;4201;48.754;8.864;2022-07-29T00:53:30;8.60;;;7.80;;
8327;SDS011;4201;48.754;8.864;2022-07-29T00:55:58;11.93;;;7.87;;
8327;SDS011;4201;48.754;8.864;2022-07-29T00:58:24;7.83;;;7.10;;
8327;SDS011;4201;48.754;8.864;2022-07-29T01:00:53;10.47;;;8.30;;
8327;SDS011;4201;48.754;8.864;2022-07-29T01:03:19;10.70;;;8.07;;
8327;SDS011;4201;48.754;8.864;2022-07-29T01:05:46;9.37;;;8.40;;
8327;SDS011;4201;48.754;8.864;2022-07-29T01:08:14;9.23;;;8.40;;
8327;SDS011;4201;48.754;8.864;2022-07-29T01:10:41;8.97;;;8.17;;
8327;SDS011;4201;48.754;8.864;2022-07-29T01:13:07;11.13;;;8.40;;
8327;SDS011;4201;48.754;8.864;2022-07-29T01:15:34;10.53;;;8.50;;
8327;SDS011;4201;48.754;8.864;2022-07-29T01:18:07;14.07;;;8.57;;
8327;SDS011;4201;48.754;8.864;2022-07-29T01:20:41;9.13;;;8.23;;
8327;SDS011;4201;48.754;8.864;2022-07-29T01:25:54;9.33;;;8.33;;
8327;SDS011;4201;48.754;8.864;2022-07-29T01:28:42;9.90;;;8.60;;
8327;SDS011;4201;48.754;8.864;2022-07-29T01:31:11;12.07;;;9.13;;
8327;SDS011;4201;48.754;8.864;2022-07-29T01:33:41;10.90;;;7.83;;
8327;SDS011;4201;48.754;8.864;2022-07-29T01:36:17;12.13;;;7.00;;
8327;SDS011;4201;48.754;8.864;2022-07-29T01:38:45;8.87;;;7.97;;
8327;SDS011;4201;48.754;8.864;2022-07-29T01:41:14;8.43;;;7.30;;
8327;SDS011;4201;48.754;8.864;2022-07-29T01:43:43;7.90;;;7.10;;
8327;SDS011;4201;48.754;8.864;2022-07-29T01:46:11;15.40;;;7.77;;
8327;SDS011;4201;48.754;8.864;2022-07-29T01:48:40;8.40;;;6.80;;
8327;SDS011;4201;48.754;8.864;2022-07-29T01:51:09;7.80;;;7.10;;
8327;SDS011;4201;48.754;8.864;2022-07-29T01:53:44;9.67;;;7.70;;
8327;SDS011;4201;48.754;8.864;2022-07-29T01:56:12;11.90;;;7.33;;
8327;SDS011;4201;48.754;8.864;2022-07-29T01:58:40;8.70;;;7.70;;
8327;SDS011;4201;48.754;8.864;2022-07-29T02:01:09;9.47;;;7.80;;
8327;SDS011;4201;48.754;8.864;2022-07-29T02:03:36;8.83;;;7.77;;
8327;SDS011;4201;48.754;8.864;2022-07-29T02:06:04;11.03;;;8.07;;
8327;SDS011;4201;48.754;8.864;2022-07-29T02:08:31;11.20;;;7.87;;
8327;SDS011;4201;48.754;8.864;2022-07-29T02:10:58;9.27;;;8.37;;
8327;SDS011;4201;48.754;8.864;2022-07-29T02:13:25;9.00;;;7.97;;
8327;SDS011;4201;48.754;8.864;2022-07-29T02:15:53;10.00;;;8.80;;
8327;SDS011;4201;48.754;8.864;2022-07-29T02:18:22;9.70;;;8.50;;
8327;SDS011;4201;48.754;8.864;2022-07-29T02:20:50;9.50;;;8.60;;
8327;SDS011;4201;48.754;8.864;2022-07-29T02:23:19;10.27;;;9.03;;
8327;SDS011;4201;48.754;8.864;2022-07-29T02:25:46;10.30;;;9.20;;
8327;SDS011;4201;48.754;8.864;2022-07-29T02:28:14;8.50;;;7.60;;
8327;SDS011;4201;48.754;8.864;2022-07-29T02:30:41;10.17;;;9.17;;
8327;SDS011;4201;48.754;8.864;2022-07-29T02:33:09;11.07;;;9.97;;
8327;SDS011;4201;48.754;8.864;2022-07-29T02:35:39;10.57;;;9.53;;
8327;SDS011;4201;48.754;8.864;2022-07-29T02:38:06;9.27;;;7.80;;
8327;SDS011;4201;48.754;8.864;2022-07-29T02:40:51;14.90;;;8.77;;
8327;SDS011;4201;48.754;8.864;2022-07-29T02:43:18;8.67;;;7.80;;
8327;SDS011;4201;48.754;8.864;2022-07-29T02:45:45;9.80;;;7.80;;
8327;SDS011;4201;48.754;8.864;2022-07-29T02:48:13;11.50;;;7.53;;
8327;SDS011;4201;48.754;8.864;2022-07-29T02:50:43;8.20;;;7.03;;
8327;SDS011;4201;48.754;8.864;2022-07-29T02:53:12;8.63;;;7.20;;
8327;SDS011;4201;48.754;8.864;2022-07-29T02:55:40;7.10;;;6.40;;
8327;SDS011;4201;48.754;8.864;2022-07-29T02:58:07;9.17;;;7.43;;
8327;SDS011;4201;48.754;8.864;2022-07-29T03:00:37;8.00;;;7.20;;
8327;SDS011;4201;48.754;8.864;2022-07-29T03:03:04;8.33;;;7.43;;
8327;SDS011;4201;48.754;8.864;2022-07-29T03:05:33;9.33;;;7.57;;
8327;SDS011;4201;48.754;8.864;2022-07-29T03:08:02;11.30;;;8.00;;
8327;SDS011;4201;48.754;8.864;2022-07-29T03:10:29;8.13;;;7.23;;
8327;SDS011;4201;48.754;8.864;2022-07-29T03:12:56;9.00;;;7.13;;
8327;SDS011;4201;48.754;8.864;2022-07-29T03:15:23;8.63;;;7.80;;
8327;SDS011;4201;48.754;8.864;2022-07-29T03:17:49;9.20;;;7.67;;
8327;SDS011;4201;48.754;8.864;2022-07-29T03:20:16;10.20;;;8.33;;
8327;SDS011;4201;48.754;8.864;2022-07-29T03:22:43;8.27;;;7.37;;
8327;SDS011;4201;48.754;8.864;2022-07-29T03:25:13;9.50;;;8.10;;
8327;SDS011;4201;48.754;8.864;2022-07-29T03:27:40;9.60;;;8.20;;
8327;SDS011;4201;48.754;8.864;2022-07-29T03:30:07;10.23;;;8.37;;
8327;SDS011;4201;48.754;8.864;2022-07-29T03:32:34;8.30;;;7.50;;
8327;SDS011;4201;48.754;8.864;2022-07-29T03:35:00;10.87;;;8.10;;
8327;SDS011;4201;48.754;8.864;2022-07-29T03:37:27;9.47;;;8.13;;
8327;SDS011;4201;48.754;8.864;2022-07-29T03:39:55;11.10;;;8.40;;
8327;SDS011;4201;48.754;8.864;2022-07-29T03:42:24;8.10;;;7.30;;
8327;SDS011;4201;48.754;8.864;2022-07-29T03:44:50;9.00;;;8.10;;
8327;SDS011;4201;48.754;8.864;2022-07-29T03:47:17;8.33;;;7.17;;
8327;SDS011;4201;48.754;8.864;2022-07-29T03:49:46;8.60;;;7.70;;
8327;SDS011;4201;48.754;8.864;2022-07-29T03:52:14;9.77;;;8.50;;
8327;SDS011;4201;48.754;8.864;2022-07-29T03:54:40;9.83;;;7.70;;
8327;SDS011;4201;48.754;8.864;2022-07-29T03:57:07;13.93;;;8.80;;
8327;SDS011;4201;48.754;8.864;2022-07-29T03:59:34;10.03;;;8.03;;
8327;SDS011;4201;48.754;8.864;2022-07-29T04:02:02;8.90;;;8.10;;
8327;SDS011;4201;48.754;8.864;2022-07-29T04:04:28;9.70;;;7.70;;
8327;SDS011;4201;48.754;8.864;2022-07-29T04:06:54;8.33;;;7.53;;
8327;SDS011;4201;48.754;8.864;2022-07-29T04:09:20;11.60;;;7.33;;
8327;SDS011;4201;48.754;8.864;2022-07-29T04:11:47;9.73;;;8.50;;
8327;SDS011;4201;48.754;8.864;2022-07-29T04:14:13;9.70;;;8.20;;
8327;SDS011;4201;48.754;8.864;2022-07-29T04:16:41;9.63;;;8.60;;
8327;SDS011;4201;48.754;8.864;2022-07-29T04:19:07;8.83;;;8.03;;
8327;SDS011;4201;48.754;8.864;2022-07-29T04:21:36;9.53;;;8.50;;
8327;SDS011;4201;48.754;8.864;2022-07-29T04:24:02;12.00;;;8.33;;
8327;SDS011;4201;48.754;8.864;2022-07-29T04:26:28;9.03;;;8.13;;
8327;SDS011;4201;48.754;8.864;2022-07-29T04:28:55;11.57;;;9.63;;
8327;SDS011;4201;48.754;8.864;2022-07-29T04:31:21;12.00;;;10.20;;
8327;SDS011;4201;48.754;8.864;2022-07-29T04:33:48;9.63;;;8.73;;
8327;SDS011;4201;48.754;8.864;2022-07-29T04:36:15;9.47;;;8.47;;
8327;SDS011;4201;48.754;8.864;2022-07-29T04:38:41;9.23;;;8.37;;
8327;SDS011;4201;48.754;8.864;2022-07-29T04:41:07;9.20;;;8.33;;
8327;SDS011;4201;48.754;8.864;2022-07-29T04:43:33;9.20;;;8.20;;
8327;SDS011;4201;48.754;8.864;2022-07-29T04:46:00;8.50;;;7.60;;
8327;SDS011;4201;48.754;8.864;2022-07-29T04:48:26;9.10;;;8.13;;
8327;SDS011;4201;48.754;8.864;2022-07-29T04:50:53;9.80;;;7.50;;
8327;SDS011;4201;48.754;8.864;2022-07-29T04:53:20;8.90;;;8.10;;
8327;SDS011;4201;48.754;8.864;2022-07-29T04:55:46;8.30;;;7.50;;
8327;SDS011;4201;48.754;8.864;2022-07-29T04:58:12;8.30;;;7.40;;
8327;SDS011;4201;48.754;8.864;2022-07-29T05:00:38;8.57;;;7.67;;
8327;SDS011;4201;48.754;8.864;2022-07-29T05:03:05;7.40;;;6.70;;
8327;SDS011;4201;48.754;8.864;2022-07-29T05:05:31;9.33;;;6.93;;
8327;SDS011;4201;48.754;8.864;2022-07-29T05:07:59;8.57;;;6.90;;
8327;SDS011;4201;48.754;8.864;2022-07-29T05:10:25;6.70;;;6.10;;
8327;SDS011;4201;48.754;8.864;2022-07-29T05:12:51;7.97;;;6.60;;
8327;SDS011;4201;48.754;8.864;2022-07-29T05:15:17;8.93;;;6.87;;
8327;SDS011;4201;48.754;8.864;2022-07-29T05:17:44;7.37;;;6.67;;
8327;SDS011;4201;48.754;8.864;2022-07-29T05:20:10;9.13;;;5.97;;
8327;SDS011;4201;48.754;8.864;2022-07-29T05:22:36;17.60;;;11.13;;
8327;SDS011;4201;48.754;8.864;2022-07-29T05:25:04;15.73;;;10.23;;
8327;SDS011;4201;48.754;8.864;2022-07-29T05:27:31;8.90;;;8.00;;
8327;SDS011;4201;48.754;8.864;2022-07-29T05:29:57;11.10;;;7.50;;
8327;SDS011;4201;48.754;8.864;2022-07-29T05:32:23;8.57;;;7.50;;
8327;SDS011;4201;48.754;8.864;2022-07-29T05:34:49;8.57;;;6.50;;
8327;SDS011;4201;48.754;8.864;2022-07-29T05:37:15;9.70;;;6.70;;
8327;SDS011;4201;48.754;8.864;2022-07-29T05:39:42;6.50;;;5.87;;
8327;SDS011;4201;48.754;8.864;2022-07-29T05:42:10;8.10;;;6.70;;
8327;SDS011;4201;48.754;8.864;2022-07-29T05:44:36;13.63;;;6.10;;
8327;SDS011;4201;48.754;8.864;2022-07-29T05:47:03;7.03;;;6.27;;
8327;SDS011;4201;48.754;8.864;2022-07-29T05:49:29;9.03;;;6.10;;
8327;SDS011;4201;48.754;8.864;2022-07-29T05:51:56;9.37;;;6.53;;
8327;SDS011;4201;48.754;8.864;2022-07-29T05:54:22;7.77;;;6.13;;
8327;SDS011;4201;48.754;8.864;2022-07-29T05:56:48;8.87;;;6.37;;
8327;SDS011;4201;48.754;8.864;2022-07-29T05:59:16;10.10;;;6.70;;
8327;SDS011;4201;48.754;8.864;2022-07-29T06:01:42;6.03;;;5.33;;
8327;SDS011;4201;48.754;8.864;2022-07-29T06:04:08;7.70;;;6.90;;
8327;SDS011;4201;48.754;8.864;2022-07-29T06:06:35;6.70;;;6.10;;
8327;SDS011;4201;48.754;8.864;2022-07-29T06:09:01;8.33;;;6.67;;
8327;SDS011;4201;48.754;8.864;2022-07-29T06:11:28;7.37;;;6.30;;
8327;SDS011;4201;48.754;8.864;2022-07-29T06:13:54;8.27;;;7.47;;
8327;SDS011;4201;48.754;8.864;2022-07-29T06:16:22;9.43;;;6.07;;
8327;SDS011;4201;48.754;8.864;2022-07-29T06:18:48;6.43;;;5.63;;
8327;SDS011;4201;48.754;8.864;2022-07-29T06:21:14;9.03;;;6.20;;
8327;SDS011;4201;48.754;8.864;2022-07-29T06:23:41;10.00;;;6.40;;
8327;SDS011;4201;48.754;8.864;2022-07-29T06:26:07;6.97;;;6.20;;
8327;SDS011;4201;48.754;8.864;2022-07-29T06:28:34;9.50;;;6.87;;
8327;SDS011;4201;48.754;8.864;2022-07-29T06:31:00;7.30;;;6.60;;
8327;SDS011;4201;48.754;8.864;2022-07-29T06:33:28;6.87;;;6.17;;
8327;SDS011;4201;48.754;8.864;2022-07-29T06:35:54;7.23;;;6.20;;
8327;SDS011;4201;48.754;8.864;2022-07-29T06:38:21;8.60;;;7.13;;
8327;SDS011;4201;48.754;8.864;2022-07-29T06:40:47;6.17;;;5.57;;
8327;SDS011;4201;48.754;8.864;2022-07-29T06:43:30;6.00;;;5.33;;
8327;SDS011;4201;48.754;8.864;2022-07-29T06:45:59;7.20;;;5.87;;
8327;SDS011;4201;48.754;8.864;2022-07-29T06:48:26;8.83;;;5.97;;
8327;SDS011;4201;48.754;8.864;2022-07-29T06:50:54;8.50;;;5.53;;
8327;SDS011;4201;48.754;8.864;2022-07-29T06:53:20;8.73;;;5.90;;
8327;SDS011;4201;48.754;8.864;2022-07-29T06:55:47;7.60;;;5.77;;
8327;SDS011;4201;48.754;8.864;2022-07-29T06:58:13;9.37;;;6.27;;
8327;SDS011;4201;48.754;8.864;2022-07-29T07:00:41;7.53;;;5.70;;
8327;SDS011;4201;48.754;8.864;2022-07-29T07:03:07;8.80;;;6.77;;
8327;SDS011;4201;48.754;8.864;2022-07-29T07:05:33;7.00;;;5.97;;
8327;SDS011;4201;48.754;8.864;2022-07-29T07:08:01;10.17;;;6.50;;
8327;SDS011;4201;48.754;8.864;2022-07-29T07:10:27;6.57;;;5.90;;
8327;SDS011;4201;48.754;8.864;2022-07-29T07:12:54;7.13;;;6.37;;
8327;SDS011;4201;48.754;8.864;2022-07-29T07:15:20;8.00;;;5.93;;
8327;SDS011;4201;48.754;8.864;2022-07-29T07:17:47;7.23;;;6.40;;
8327;SDS011;4201;48.754;8.864;2022-07-29T07:20:13;7.67;;;6.13;;
8327;SDS011;4201;48.754;8.864;2022-07-29T07:22:39;8.20;;;5.57;;
8327;SDS011;4201;48.754;8.864;2022-07-29T07:25:07;7.17;;;5.40;;
8327;SDS011;4201;48.754;8.864;2022-07-29T07:27:33;11.10;;;6.17;;
8327;SDS011;4201;48.754;8.864;2022-07-29T07:30:01;6.40;;;5.80;;
8327;SDS011;4201;48.754;8.864;2022-07-29T07:32:27;8.17;;;5.67;;
8327;SDS011;4201;48.754;8.864;2022-07-29T07:34:53;6.83;;;5.57;;
8327;SDS011;4201;48.754;8.864;2022-07-29T07:37:19;8.40;;;5.87;;
8327;SDS011;4201;48.754;8.864;2022-07-29T07:39:46;6.67;;;5.10;;
8327;SDS011;4201;48.754;8.864;2022-07-29T07:42:13;9.67;;;5.30;;
8327;SDS011;4201;48.754;8.864;2022-07-29T07:44:40;7.20;;;4.90;;
8327;SDS011;4201;48.754;8.864;2022-07-29T07:47:06;10.43;;;5.50;;
8327;SDS011;4201;48.754;8.864;2022-07-29T07:49:32;8.90;;;4.90;;
8327;SDS011;4201;48.754;8.864;2022-07-29T07:51:59;6.63;;;5.83;;
8327;SDS011;4201;48.754;8.864;2022-07-29T07:54:25;7.40;;;5.43;;
8327;SDS011;4201;48.754;8.864;2022-07-29T07:56:51;6.83;;;5.80;;
8327;SDS011;4201;48.754;8.864;2022-07-29T07:59:19;9.87;;;5.93;;
8327;SDS011;4201;48.754;8.864;2022-07-29T08:01:45;16.27;;;5.87;;
8327;SDS011;4201;48.754;8.864;2022-07-29T08:04:11;10.27;;;5.77;;
8327;SDS011;4201;48.754;8.864;2022-07-29T08:06:38;7.57;;;5.03;;
8327;SDS011;4201;48.754;8.864;2022-07-29T08:09:04;6.23;;;5.00;;
8327;SDS011;4201;48.754;8.864;2022-07-29T08:11:31;10.07;;;5.47;;
8327;SDS011;4201;48.754;8.864;2022-07-29T08:13:57;7.10;;;5.73;;
8327;SDS011;4201;48.754;8.864;2022-07-29T08:16:25;5.40;;;4.70;;
8327;SDS011;4201;48.754;8.864;2022-07-29T08:18:51;7.50;;;5.83;;
8327;SDS011;4201;48.754;8.864;2022-07-29T08:21:21;7.73;;;5.97;;
8327;SDS011;4201;48.754;8.864;2022-07-29T08:23:48;10.10;;;6.00;;
8327;SDS011;4201;48.754;8.864;2022-07-29T08:26:18;8.27;;;4.70;;
8327;SDS011;4201;48.754;8.864;2022-07-29T08:28:44;5.20;;;4.67;;
8327;SDS011;4201;48.754;8.864;2022-07-29T08:31:14;4.93;;;4.40;;
8327;SDS011;4201;48.754;8.864;2022-07-29T08:33:42;6.80;;;5.40;;
8327;SDS011;4201;48.754;8.864;2022-07-29T08:36:08;8.63;;;5.20;;
8327;SDS011;4201;48.754;8.864;2022-07-29T08:38:34;8.27;;;5.10;;
8327;SDS011;4201;48.754;8.864;2022-07-29T08:41:01;6.10;;;4.73;;
8327;SDS011;4201;48.754;8.864;2022-07-29T08:43:27;5.97;;;4.40;;
8327;SDS011;4201;48.754;8.864;2022-07-29T08:45:53;6.60;;;5.17;;
8327;SDS011;4201;48.754;8.864;2022-07-29T08:48:21;6.80;;;5.90;;
8327;SDS011;4201;48.754;8.864;2022-07-29T08:50:50;9.97;;;5.20;;
8327;SDS011;4201;48.754;8.864;2022-07-29T08:53:18;7.90;;;5.17;;
8327;SDS011;4201;48.754;8.864;2022-07-29T08:55:46;7.33;;;5.10;;
8327;SDS011;4201;48.754;8.864;2022-07-29T08:58:12;7.00;;;4.80;;
8327;SDS011;4201;48.754;8.864;2022-07-29T09:00:41;5.70;;;5.20;;
8327;SDS011;4201;48.754;8.864;2022-07-29T09:03:08;8.93;;;5.20;;
8327;SDS011;4201;48.754;8.864;2022-07-29T09:05:35;8.13;;;5.50;;
8327;SDS011;4201;48.754;8.864;2022-07-29T09:08:03;6.80;;;5.67;;
8327;SDS011;4201;48.754;8.864;2022-07-29T09:10:30;9.30;;;5.40;;
8327;SDS011;4201;48.754;8.864;2022-07-29T09:12:56;5.30;;;4.80;;
8327;SDS011;4201;48.754;8.864;2022-07-29T09:15:23;11.57;;;5.90;;
8327;SDS011;4201;48.754;8.864;2022-07-29T09:17:49;10.00;;;5.50;;
8327;SDS011;4201;48.754;8.864;2022-07-29T09:20:16;6.70;;;5.00;;
8327;SDS011;4201;48.754;8.864;2022-07-29T09:22:43;5.53;;;5.00;;
8327;SDS011;4201;48.754;8.864;2022-07-29T09:25:13;7.37;;;5.30;;
8327;SDS011;4201;48.754;8.864;2022-07-29T09:27:39;10.50;;;5.17;;
8327;SDS011;4201;48.754;8.864;2022-07-29T09:30:06;6.33;;;5.17;;
8327;SDS011;4201;48.754;8.864;2022-07-29T09:32:53;6.23;;;4.83;;
8327;SDS011;4201;48.754;8.864;2022-07-29T09:35:20;7.40;;;4.93;;
8327;SDS011;4201;48.754;8.864;2022-07-29T09:37:47;10.97;;;4.70;;
8327;SDS011;4201;48.754;8.864;2022-07-29T09:40:15;6.70;;;5.47;;
8327;SDS011;4201;48.754;8.864;2022-07-29T09:42:42;6.70;;;5.13;;
8327;SDS011;4201;48.754;8.864;2022-07-29T09:45:09;7.13;;;5.13;;
8327;SDS011;4201;48.754;8.864;2022-07-29T09:47:42;7.00;;;5.00;;
8327;SDS011;4201;48.754;8.864;2022-07-29T09:50:11;5.33;;;4.63;;
8327;SDS011;4201;48.754;8.864;2022-07-29T09:52:44;11.90;;;4.77;;
8327;SDS011;4201;48.754;8.864;2022-07-29T09:55:10;8.77;;;5.60;;
8327;SDS011;4201;48.754;8.864;2022-07-29T09:57:38;10.00;;;5.60;;
8327;SDS011;4201;48.754;8.864;2022-07-29T10:00:05;9.30;;;5.70;;
8327;SDS011;4201;48.754;8.864;2022-07-29T10:02:35;8.47;;;4.93;;
8327;SDS011;4201;48.754;8.864;2022-07-29T10:05:02;5.80;;;5.17;;
8327;SDS011;4201;48.754;8.864;2022-07-29T10:07:43;7.13;;;4.50;;
8327;SDS011;4201;48.754;8.864;2022-07-29T10:10:09;8.73;;;5.30;;
8327;SDS011;4201;48.754;8.864;2022-07-29T10:12:42;7.60;;;4.63;;
8327;SDS011;4201;48.754;8.864;2022-07-29T10:15:14;8.57;;;5.80;;
8327;SDS011;4201;48.754;8.864;2022-07-29T10:17:41;8.57;;;5.17;;
8327;SDS011;4201;48.754;8.864;2022-07-29T10:20:08;8.37;;;6.17;;
8327;SDS011;4201;48.754;8.864;2022-07-29T10:22:34;9.07;;;6.53;;
8327;SDS011;4201;48.754;8.864;2022-07-29T10:25:00;8.90;;;7.50;;
8327;SDS011;4201;48.754;8.864;2022-07-29T10:27:27;12.17;;;7.80;;
8327;SDS011;4201;48.754;8.864;2022-07-29T10:29:55;9.90;;;7.57;;
8327;SDS011;4201;48.754;8.864;2022-07-29T10:32:30;12.50;;;7.80;;
8327;SDS011;4201;48.754;8.864;2022-07-29T10:35:09;16.20;;;9.67;;
8327;SDS011;4201;48.754;8.864;2022-07-29T10:37:44;21.20;;;11.97;;
8327;SDS011;4201;48.754;8.864;2022-07-29T10:40:15;11.60;;;8.90;;
8327;SDS011;4201;48.754;8.864;2022-07-29T10:45:44;17.07;;;8.93;;
8327;SDS011;4201;48.754;8.864;2022-07-29T10:48:10;12.53;;;10.70;;
8327;SDS011;4201;48.754;8.864;2022-07-29T10:50:52;16.60;;;11.57;;
8327;SDS011;4201;48.754;8.864;2022-07-29T10:53:19;10.90;;;9.80;;
8327;SDS011;4201;48.754;8.864;2022-07-29T10:55:46;21.40;;;8.60;;
8327;SDS011;4201;48.754;8.864;2022-07-29T10:58:15;12.10;;;8.03;;
8327;SDS011;4201;48.754;8.864;2022-07-29T11:00:41;11.50;;;9.07;;
8327;SDS011;4201;48.754;8.864;2022-07-29T11:03:10;8.93;;;7.50;;
8327;SDS011;4201;48.754;8.864;2022-07-29T11:05:56;8.63;;;7.77;;
8327;SDS011;4201;48.754;8.864;2022-07-29T11:08:23;9.50;;;7.00;;
8327;SDS011;4201;48.754;8.864;2022-07-29T11:10:51;9.57;;;8.17;;
8327;SDS011;4201;48.754;8.864;2022-07-29T11:13:44;10.00;;;8.07;;
8327;SDS011;4201;48.754;8.864;2022-07-29T11:16:11;8.17;;;7.37;;
8327;SDS011;4201;48.754;8.864;2022-07-29T11:18:47;8.13;;;7.33;;
8327;SDS011;4201;48.754;8.864;2022-07-29T11:21:37;14.47;;;7.63;;
8327;SDS011;4201;48.754;8.864;2022-07-29T11:24:11;9.80;;;6.63;;
8327;SDS011;4201;48.754;8.864;2022-07-29T11:26:37;10.00;;;7.50;;
8327;SDS011;4201;48.754;8.864;2022-07-29T11:29:04;8.70;;;7.27;;
8327;SDS011;4201;48.754;8.864;2022-07-29T11:31:33;8.30;;;7.47;;
8327;SDS011;4201;48.754;8.864;2022-07-29T11:39:26;8.47;;;7.37;;
8327;SDS011;4201;48.754;8.864;2022-07-29T11:41:52;8.77;;;7.40;;
8327;SDS011;4201;48.754;8.864;2022-07-29T11:44:18;8.30;;;7.47;;
8327;SDS011;4201;48.754;8.864;2022-07-29T11:47:05;10.57;;;7.23;;
8327;SDS011;4201;48.754;8.864;2022-07-29T11:49:34;10.50;;;7.63;;
8327;SDS011;4201;48.754;8.864;2022-07-29T11:52:00;10.93;;;8.00;;
8327;SDS011;4201;48.754;8.864;2022-07-29T11:54:30;13.33;;;8.03;;
8327;SDS011;4201;48.754;8.864;2022-07-29T11:56:57;10.60;;;6.93;;
8327;SDS011;4201;48.754;8.864;2022-07-29T11:59:23;8.00;;;7.20;;
8327;SDS011;4201;48.754;8.864;2022-07-29T12:01:52;9.93;;;7.33;;
8327;SDS011;4201;48.754;8.864;2022-07-29T12:04:19;9.77;;;7.17;;
8327;SDS011;4201;48.754;8.864;2022-07-29T12:06:48;6.87;;;6.23;;
8327;SDS011;4201;48.754;8.864;2022-07-29T12:09:14;7.03;;;6.00;;
8327;SDS011;4201;48.754;8.864;2022-07-29T12:11:43;8.10;;;7.10;;
8327;SDS011;4201;48.754;8.864;2022-07-29T12:14:23;9.53;;;6.07;;
8327;SDS011;4201;48.754;8.864;2022-07-29T12:16:50;7.90;;;6.70;;
8327;SDS011;4201;48.754;8.864;2022-07-29T12:19:16;9.00;;;6.60;;
8327;SDS011;4201;48.754;8.864;2022-07-29T12:21:43;9.10;;;7.80;;
8327;SDS011;4201;48.754;8.864;2022-07-29T12:24:09;8.20;;;7.07;;
8327;SDS011;4201;48.754;8.864;2022-07-29T12:26:35;7.67;;;6.70;;
8327;SDS011;4201;48.754;8.864;2022-07-29T12:29:03;9.60;;;7.00;;
8327;SDS011;4201;48.754;8.864;2022-07-29T12:31:30;11.30;;;7.00;;
8327;SDS011;4201;48.754;8.864;2022-07-29T12:33:56;8.27;;;6.93;;
8327;SDS011;4201;48.754;8.864;2022-07-29T12:36:22;9.50;;;6.60;;
8327;SDS011;4201;48.754;8.864;2022-07-29T12:38:48;10.50;;;7.03;;
8327;SDS011;4201;48.754;8.864;2022-07-29T12:41:15;7.03;;;6.07;;
8327;SDS011;4201;48.754;8.864;2022-07-29T12:43:51;10.30;;;6.80;;
8327;SDS011;4201;48.754;8.864;2022-07-29T12:46:19;10.10;;;6.87;;
8327;SDS011;4201;48.754;8.864;2022-07-29T12:48:49;15.50;;;6.70;;
8327;SDS011;4201;48.754;8.864;2022-07-29T12:51:16;8.83;;;6.10;;
8327;SDS011;4201;48.754;8.864;2022-07-29T12:54:00;7.10;;;6.20;;
8327;SDS011;4201;48.754;8.864;2022-07-29T12:56:27;8.93;;;6.37;;
8327;SDS011;4201;48.754;8.864;2022-07-29T12:58:53;9.67;;;5.47;;
8327;SDS011;4201;48.754;8.864;2022-07-29T13:01:21;12.30;;;5.93;;
8327;SDS011;4201;48.754;8.864;2022-07-29T13:03:49;9.07;;;5.70;;
8327;SDS011;4201;48.754;8.864;2022-07-29T13:06:29;7.13;;;6.10;;
8327;SDS011;4201;48.754;8.864;2022-07-29T13:08:58;8.43;;;5.60;;
8327;SDS011;4201;48.754;8.864;2022-07-29T13:11:28;6.80;;;5.00;;
8327;SDS011;4201;48.754;8.864;2022-07-29T13:13:55;7.20;;;6.50;;
8327;SDS011;4201;48.754;8.864;2022-07-29T13:16:22;6.67;;;5.00;;
8327;SDS011;4201;48.754;8.864;2022-07-29T13:19:02;6.40;;;5.70;;
8327;SDS011;4201;48.754;8.864;2022-07-29T13:21:28;7.60;;;5.83;;
8327;SDS011;4201;48.754;8.864;2022-07-29T13:23:54;6.03;;;5.43;;
8327;SDS011;4201;48.754;8.864;2022-07-29T13:26:20;7.17;;;5.40;;
8327;SDS011;4201;48.754;8.864;2022-07-29T13:28:47;6.47;;;5.10;;
8327;SDS011;4201;48.754;8.864;2022-07-29T13:31:13;7.67;;;5.57;;
8327;SDS011;4201;48.754;8.864;2022-07-29T13:33:40;8.33;;;5.73;;
8327;SDS011;4201;48.754;8.864;2022-07-29T13:36:07;6.07;;;5.40;;
8327;SDS011;4201;48.754;8.864;2022-07-29T13:38:33;7.73;;;6.10;;
8327;SDS011;4201;48.754;8.864;2022-07-29T13:41:00;6.40;;;5.00;;
8327;SDS011;4201;48.754;8.864;2022-07-29T13:43:26;9.27;;;6.53;;
8327;SDS011;4201;48.754;8.864;2022-07-29T13:45:52;7.67;;;6.03;;
8327;SDS011;4201;48.754;8.864;2022-07-29T13:48:19;6.70;;;5.97;;
8327;SDS011;4201;48.754;8.864;2022-07-29T13:50:46;7.50;;;6.70;;
8327;SDS011;4201;48.754;8.864;2022-07-29T13:53:13;6.50;;;5.70;;
8327;SDS011;4201;48.754;8.864;2022-07-29T13:55:39;15.67;;;5.90;;
8327;SDS011;4201;48.754;8.864;2022-07-29T13:58:05;9.10;;;5.40;;
8327;SDS011;4201;48.754;8.864;2022-07-29T14:00:32;7.83;;;6.40;;
8327;SDS011;4201;48.754;8.864;2022-07-29T14:02:58;8.20;;;6.20;;
8327;SDS011;4201;48.754;8.864;2022-07-29T14:05:24;8.30;;;6.67;;
8327;SDS011;4201;48.754;8.864;2022-07-29T14:07:52;6.10;;;5.50;;
8327;SDS011;4201;48.754;8.864;2022-07-29T14:10:18;6.40;;;5.80;;
8327;SDS011;4201;48.754;8.864;2022-07-29T14:12:44;7.00;;;5.53;;
8327;SDS011;4201;48.754;8.864;2022-07-29T14:15:10;11.97;;;6.47;;
8327;SDS011;4201;48.754;8.864;2022-07-29T14:17:37;7.43;;;5.50;;
8327;SDS011;4201;48.754;8.864;2022-07-29T14:20:04;6.43;;;5.83;;
8327;SDS011;4201;48.754;8.864;2022-07-29T14:22:30;9.43;;;5.80;;
8327;SDS011;4201;48.754;8.864;2022-07-29T14:24:57;7.20;;;5.70;;
8327;SDS011;4201;48.754;8.864;2022-07-29T14:27:24;6.93;;;5.80;;
8327;SDS011;4201;48.754;8.864;2022-07-29T14:29:50;8.33;;;5.57;;
8327;SDS011;4201;48.754;8.864;2022-07-29T14:32:16;8.00;;;5.60;;
8327;SDS011;4201;48.754;8.864;2022-07-29T14:34:42;7.90;;;6.53;;
8327;SDS011;4201;48.754;8.864;2022-07-29T14:37:09;11.43;;;5.90;;
8327;SDS011;4201;48.754;8.864;2022-07-29T14:39:35;5.80;;;5.20;;
8327;SDS011;4201;48.754;8.864;2022-07-29T14:42:03;8.90;;;5.37;;
8327;SDS011;4201;48.754;8.864;2022-07-29T14:44:29;9.20;;;5.03;;
8327;SDS011;4201;48.754;8.864;2022-07-29T14:46:56;11.43;;;5.53;;
8327;SDS011;4201;48.754;8.864;2022-07-29T14:49:24;7.20;;;6.53;;
8327;SDS011;4201;48.754;8.864;2022-07-29T14:51:50;6.67;;;5.57;;
8327;SDS011;4201;48.754;8.864;2022-07-29T14:54:16;9.20;;;6.47;;
8327;SDS011;4201;48.754;8.864;2022-07-29T14:56:43;9.77;;;6.17;;
8327;SDS011;4201;48.754;8.864;2022-07-29T14:59:10;7.10;;;6.30;;
8327;SDS011;4201;48.754;8.864;2022-07-29T15:01:37;6.10;;;5.50;;
8327;SDS011;4201;48.754;8.864;2022-07-29T15:04:03;8.30;;;6.60;;
8327;SDS011;4201;48.754;8.864;2022-07-29T15:06:29;7.37;;;6.67;;
8327;SDS011;4201;48.754;8.864;2022-07-29T15:08:55;9.60;;;6.43;;
8327;SDS011;4201;48.754;8.864;2022-07-29T15:11:22;7.30;;;5.93;;
8327;SDS011;4201;48.754;8.864;2022-07-29T15:13:48;7.70;;;6.73;;
8327;SDS011;4201;48.754;8.864;2022-07-29T15:16:16;6.33;;;4.70;;
8327;SDS011;4201;48.754;8.864;2022-07-29T15:18:42;9.47;;;5.60;;
8327;SDS011;4201;48.754;8.864;2022-07-29T15:21:08;7.73;;;5.77;;
8327;SDS011;4201;48.754;8.864;2022-07-29T15:23:34;5.80;;;4.30;;
8327;SDS011;4201;48.754;8.864;2022-07-29T15:26:01;6.27;;;3.60;;
8327;SDS011;4201;48.754;8.864;2022-07-29T15:28:27;10.13;;;5.20;;